Weather at Calgary / Christiansen Field

Public forecast

Using degrees Celsius for public forecast. Weather courtesy of forecast.io.

Closest aviation weather report (METAR) to Calgary / Christiansen Field

Closest report is Calgary International Airport, 18.9 nm (35.0 km) N. Retrieved 2022/01/21 10:00 UTC (34 minutes ago):

CYYC 211000Z 34010KT 15SM BKN097 02/M04 A2999 RMK AC7 SLP189

Closest aviation forecast (TAF) to Calgary / Christiansen Field

Closest forecast is Calgary International Airport, 18.9 nm (35.0 km) N. Retrieved 2022/01/21 09:42 UTC (52 minutes ago):

TAF TAF CYYC 210840Z 2109/2206 35010KT P6SM BKN080 TEMPO 2109/2113 33018G28KT P6SM -SHRA BKN050 FM211400 30005KT P6SM FEW060 BECMG 2114/2116 28004KT SKC FM211800 25005KT P6SM FEW140 BKN240 FM212200 19005KT P6SM BKN120 BKN200 FM220300 120005KT P6SM OVC080 BECMG 2204/2206 25008KT RMK NXT FCST BY 211200Z